Time;durP1;ratioP1;P1;durP2;ratioP2;P2;SDS_P1;SDS_P2;PMS_P1;PMS_P2;Temp;Humidity;BMP_temperature;BMP_pressure;BME280_temperature;BME280_humidity;BME280_pressure;Samples;Min_cycle;Max_cycle;Signal;HPM_P1;HPM_P2
2021/01/01 00:01:54;;;;;;;;;;;;;;;-2.73;93.66;99691.41;6278614;22;20382;-74
2021/01/01 00:04:20;;;;;;;;;;;;;;;-2.74;93.46;99686.19;6252458;22;20240;-74
2021/01/01 00:06:45;;;;;;;;;;;;;;;-2.75;93.50;99690.78;6278840;22;20339;-74
2021/01/01 00:09:11;;;;;;;;;;;;;;;-2.77;93.71;99684.75;6278574;22;19986;-74
2021/01/01 00:11:36;;;;;;;;;;;;;;;-2.77;93.58;99690.19;6278673;22;19907;-74
2021/01/01 00:14:01;;;;;;;;;;;;;;;-2.81;93.65;99685.44;6279387;22;20536;-74
2021/01/01 00:16:27;;;;;;;;;;;;;;;-2.81;93.64;99690.88;6279157;22;19942;-74
2021/01/01 00:18:52;;;;;;;;;;;;;;;-2.83;93.45;99693.00;6278576;22;20355;-74
2021/01/01 00:21:17;;;;;;;;;;;;;;;-2.86;93.46;99693.44;6251569;22;19915;-74
2021/01/01 00:23:43;;;;;;;;;;;;;;;-2.88;93.46;99690.94;6279298;22;19903;-74
2021/01/01 00:26:15;;;;;;;;;;;;;;;-2.95;93.56;99685.59;6226082;22;19934;-75
2021/01/01 00:28:43;;;;;;;;;;;;;;;-2.95;93.80;99691.03;6278945;22;19947;-74
2021/01/01 00:31:15;;;;;;;;;;;;;;;-2.95;93.55;99691.03;6226456;22;19923;-74
2021/01/01 00:33:41;;;;;;;;;;;;;;;-3.01;93.52;99691.94;6251391;22;19993;-74
2021/01/01 00:36:06;;;;;;;;;;;;;;;-2.99;93.64;99689.81;6278838;22;19907;-74
2021/01/01 00:38:31;;;;;;;;;;;;;;;-3.04;93.52;99705.94;6278849;22;19903;-74
2021/01/01 00:40:57;;;;;;;;;;;;;;;-3.06;93.91;99705.34;6280112;22;19915;-74
2021/01/01 00:43:22;;;;;;;;;;;;;;;-3.10;93.85;99704.13;6228805;22;19910;-74
2021/01/01 00:45:47;;;;;;;;;;;;;;;-3.11;93.62;99697.03;6228432;22;19975;-74
2021/01/01 00:48:13;;;;;;;;;;;;;;;-3.11;93.58;99697.03;6280685;22;19976;-73
2021/01/01 00:50:38;;;;;;;;;;;;;;;-3.11;93.51;99704.38;6253190;22;19930;-74
2021/01/01 00:53:03;;;;;;;;;;;;;;;-3.17;93.33;99704.22;6280910;22;20254;-74
2021/01/01 00:55:29;;;;;;;;;;;;;;;-3.17;93.30;99697.94;6280242;22;19903;-75
2021/01/01 00:57:54;;;;;;;;;;;;;;;-3.19;93.25;99695.44;6253865;22;19903;-74
2021/01/01 01:00:19;;;;;;;;;;;;;;;-3.22;93.33;99701.31;6227731;22;19984;-74
2021/01/01 01:02:45;;;;;;;;;;;;;;;-3.20;93.21;99696.50;6280977;22;20378;-75
2021/01/01 01:05:10;;;;;;;;;;;;;;;-3.25;93.37;99696.34;6253226;22;19927;-74
2021/01/01 01:07:36;;;;;;;;;;;;;;;-3.24;93.27;99692.56;6253543;22;19962;-74
2021/01/01 01:10:01;;;;;;;;;;;;;;;-3.26;93.62;99699.28;6252569;22;19977;-74
2021/01/01 01:12:29;;;;;;;;;;;;;;;-3.27;93.63;99693.00;6253859;22;19904;-74
2021/01/01 01:14:54;;;;;;;;;;;;;;;-3.26;93.61;99704.69;6280727;22;19903;-74
2021/01/01 01:17:20;;;;;;;;;;;;;;;-3.27;93.63;99697.63;6280292;22;19986;-75
2021/01/01 01:19:45;;;;;;;;;;;;;;;-3.27;93.49;99692.19;6280123;22;20283;-74
2021/01/01 01:22:10;;;;;;;;;;;;;;;-3.27;93.67;99697.63;6280469;22;19903;-74
2021/01/01 01:24:36;;;;;;;;;;;;;;;-3.28;93.65;99695.97;6253003;22;20009;-74
2021/01/01 01:27:01;;;;;;;;;;;;;;;-3.30;93.54;99698.06;6280138;22;20318;-75
2021/01/01 01:29:26;;;;;;;;;;;;;;;-3.30;93.61;99698.06;6280609;22;20342;-74
2021/01/01 01:31:52;;;;;;;;;;;;;;;-3.28;93.60;99698.69;6280696;22;19907;-74
2021/01/01 01:34:17;;;;;;;;;;;;;;;-3.28;93.71;99702.22;6227382;22;19934;-74
2021/01/01 01:36:42;;;;;;;;;;;;;;;-3.30;93.57;99703.50;6279971;22;20237;-75
2021/01/01 01:39:08;;;;;;;;;;;;;;;-3.32;93.74;99702.88;6280619;22;19911;-74
2021/01/01 01:41:33;;;;;;;;;;;;;;;-3.32;93.39;99711.03;6227942;22;19914;-74
2021/01/01 01:43:58;;;;;;;;;;;;;;;-3.33;93.56;99704.78;6252836;22;20262;-74
2021/01/01 01:46:24;;;;;;;;;;;;;;;-3.34;93.47;99713.13;6279964;22;19903;-74
2021/01/01 01:48:50;;;;;;;;;;;;;;;-3.32;93.52;99705.59;6253168;22;20272;-74
2021/01/01 01:51:16;;;;;;;;;;;;;;;-3.30;93.54;99706.22;6227983;22;19917;-74
2021/01/01 01:53:44;;;;;;;;;;;;;;;-3.35;93.59;99709.59;6253175;22;19931;-75
2021/01/01 01:56:10;;;;;;;;;;;;;;;-3.37;93.41;99715.25;6279637;22;19907;-74
2021/01/01 01:58:35;;;;;;;;;;;;;;;-3.35;93.45;99717.72;6253207;22;19941;-75
2021/01/01 02:01:01;;;;;;;;;;;;;;;-3.34;93.58;99713.13;6253012;22;19907;-74
2021/01/01 02:03:29;;;;;;;;;;;;;;;-3.42;93.65;99717.81;6280093;22;19903;-75
2021/01/01 02:05:55;;;;;;;;;;;;;;;-3.46;93.55;99715.75;6252081;22;19903;-75
2021/01/01 02:08:20;;;;;;;;;;;;;;;-3.45;93.50;99714.72;6279770;22;19947;-74
2021/01/01 02:10:53;;;;;;;;;;;;;;;-3.44;93.19;99713.66;6279809;22;19907;-74
2021/01/01 02:13:18;;;;;;;;;;;;;;;-3.49;93.16;99719.72;6280028;22;19907;-74
2021/01/01 02:15:44;;;;;;;;;;;;;;;-3.48;93.24;99726.84;6227627;22;19910;-74
2021/01/01 02:18:09;;;;;;;;;;;;;;;-3.54;93.40;99733.13;6279914;22;19940;-74
2021/01/01 02:20:35;;;;;;;;;;;;;;;-3.57;93.46;99730.84;6279590;22;20305;-74
2021/01/01 02:23:02;;;;;;;;;;;;;;;-3.56;93.57;99737.97;6280019;22;19903;-74
2021/01/01 02:25:27;;;;;;;;;;;;;;;-3.54;93.50;99735.84;6252273;22;19938;-74
2021/01/01 02:27:53;;;;;;;;;;;;;;;-3.53;93.35;99732.09;6279572;22;19910;-75
2021/01/01 02:30:18;;;;;;;;;;;;;;;-3.56;93.30;99739.84;6279946;22;19913;-74
2021/01/01 02:32:44;;;;;;;;;;;;;;;-3.63;93.55;99737.19;6279955;22;19934;-74
2021/01/01 02:35:09;;;;;;;;;;;;;;;-3.67;93.90;99742.22;6251563;22;19909;-74
2021/01/01 02:37:34;;;;;;;;;;;;;;;-3.61;93.41;99735.91;6252429;22;20281;-75
2021/01/01 02:40:00;;;;;;;;;;;;;;;-3.65;93.66;99731.97;6252154;22;19907;-74
2021/01/01 02:42:25;;;;;;;;;;;;;;;-3.62;93.58;99738.84;6253084;22;19910;-74
2021/01/01 02:44:50;;;;;;;;;;;;;;;-3.68;94.06;99742.44;6252034;22;19903;-74
2021/01/01 02:47:16;;;;;;;;;;;;;;;-3.66;94.11;99740.34;6252654;22;19982;-75
2021/01/01 02:49:41;;;;;;;;;;;;;;;-3.72;94.32;99741.22;6252820;22;19903;-75
2021/01/01 02:52:07;;;;;;;;;;;;;;;-3.66;94.03;99741.16;6279436;22;19903;-74
2021/01/01 02:54:32;;;;;;;;;;;;;;;-3.65;93.72;99739.28;6278922;22;19910;-75
2021/01/01 02:56:57;;;;;;;;;;;;;;;-3.63;94.01;99737.19;6279172;22;19907;-75
2021/01/01 02:59:23;;;;;;;;;;;;;;;-3.60;93.97;99739.44;6279845;22;20320;-75
2021/01/01 03:01:48;;;;;;;;;;;;;;;-3.60;94.09;99739.44;6279061;22;19926;-74
2021/01/01 03:04:13;;;;;;;;;;;;;;;-3.57;93.81;99743.59;6279307;22;19903;-74
2021/01/01 03:06:39;;;;;;;;;;;;;;;-3.59;93.92;99741.13;6252228;22;19903;-74
2021/01/01 03:09:05;;;;;;;;;;;;;;;-3.57;93.91;99740.88;6251980;22;19911;-74
2021/01/01 03:11:30;;;;;;;;;;;;;;;-3.60;93.85;99753.03;6279234;22;19962;-75
2021/01/01 03:13:56;;;;;;;;;;;;;;;-3.60;93.79;99744.88;6252244;22;20326;-74
2021/01/01 03:16:21;;;;;;;;;;;;;;;-3.58;94.01;99753.63;6279252;22;19941;-74
2021/01/01 03:18:46;;;;;;;;;;;;;;;-3.58;93.80;99753.63;6279462;22;19960;-75
2021/01/01 03:21:12;;;;;;;;;;;;;;;-3.58;93.75;99753.63;6252092;22;19957;-74
2021/01/01 03:23:37;;;;;;;;;;;;;;;-3.60;93.86;99759.28;6252233;22;19907;-74
2021/01/01 03:26:03;;;;;;;;;;;;;;;-3.60;93.78;99761.16;6251716;22;19903;-74
2021/01/01 03:28:28;;;;;;;;;;;;;;;-3.58;93.85;99764.50;6279675;22;19903;-75
2021/01/01 03:30:53;;;;;;;;;;;;;;;-3.60;93.87;99762.00;6279209;22;19909;-75
2021/01/01 03:33:18;;;;;;;;;;;;;;;-3.55;93.88;99766.75;6251355;22;19903;-74
2021/01/01 03:35:44;;;;;;;;;;;;;;;-3.58;93.77;99767.22;6278833;22;19918;-74
2021/01/01 03:38:09;;;;;;;;;;;;;;;-3.59;93.90;99773.69;6279384;22;19938;-74
2021/01/01 03:40:35;;;;;;;;;;;;;;;-3.56;93.90;99775.16;6251518;22;19907;-75
2021/01/01 03:43:00;;;;;;;;;;;;;;;-3.61;93.88;99775.78;6278793;22;19980;-74
2021/01/01 03:45:25;;;;;;;;;;;;;;;-3.56;94.07;99781.41;6252146;22;19942;-74
2021/01/01 03:47:51;;;;;;;;;;;;;;;-3.61;94.27;99782.06;6279387;22;19958;-74
2021/01/01 03:50:16;;;;;;;;;;;;;;;-3.66;94.47;99771.00;6252056;22;19953;-74
2021/01/01 03:52:41;;;;;;;;;;;;;;;-3.64;94.46;99770.81;6278990;22;19903;-75
2021/01/01 03:55:07;;;;;;;;;;;;;;;-3.63;94.51;99772.47;6251575;22;20490;-75
2021/01/01 03:57:32;;;;;;;;;;;;;;;-3.67;94.64;99771.25;6252369;22;19903;-74
2021/01/01 03:59:57;;;;;;;;;;;;;;;-3.66;94.75;99771.00;6252051;22;19918;-74
2021/01/01 04:02:23;;;;;;;;;;;;;;;-3.64;94.77;99773.53;6278963;22;19934;-75
2021/01/01 04:04:48;;;;;;;;;;;;;;;-3.66;94.70;99764.75;6251657;22;20218;-74
2021/01/01 04:07:13;;;;;;;;;;;;;;;-3.60;94.54;99777.44;6252011;22;19910;-74
2021/01/01 04:09:39;;;;;;;;;;;;;;;-3.65;94.75;99769.13;6278541;22;19911;-75
2021/01/01 04:12:04;;;;;;;;;;;;;;;-3.65;94.77;99774.56;6278949;22;19924;-74
2021/01/01 04:14:30;;;;;;;;;;;;;;;-3.63;94.66;99773.28;6279728;22;19907;-74
2021/01/01 04:16:55;;;;;;;;;;;;;;;-3.67;94.89;99769.38;6254100;22;20229;-75
2021/01/01 04:19:20;;;;;;;;;;;;;;;-3.64;94.49;99778.94;6281079;22;19903;-74
2021/01/01 04:21:46;;;;;;;;;;;;;;;-3.65;94.66;99777.28;6280505;22;19946;-74
2021/01/01 04:24:12;;;;;;;;;;;;;;;-3.65;94.40;99772.69;6253429;22;19907;-74
2021/01/01 04:26:37;;;;;;;;;;;;;;;-3.64;94.29;99773.53;6280882;22;19909;-75
2021/01/01 04:29:03;;;;;;;;;;;;;;;-3.65;94.47;99782.69;6280945;22;19939;-74
2021/01/01 04:31:28;;;;;;;;;;;;;;;-3.65;94.48;99777.28;6280645;22;19903;-74
2021/01/01 04:33:53;;;;;;;;;;;;;;;-3.70;94.53;99780.66;6252866;22;19903;-74
2021/01/01 04:36:18;;;;;;;;;;;;;;;-3.69;94.57;99776.88;6253611;22;19934;-75
2021/01/01 04:38:44;;;;;;;;;;;;;;;-3.69;94.58;99770.63;6280879;22;19911;-74
2021/01/01 04:41:09;;;;;;;;;;;;;;;-3.73;94.55;99770.25;6280525;22;19907;-75
2021/01/01 04:43:35;;;;;;;;;;;;;;;-3.71;94.53;99770.00;6253588;22;20313;-74
2021/01/01 04:46:01;;;;;;;;;;;;;;;-3.68;94.27;99772.28;6280828;22;19903;-75
2021/01/01 04:48:27;;;;;;;;;;;;;;;-3.75;94.56;99771.50;6228839;22;20319;-75
2021/01/01 04:50:52;;;;;;;;;;;;;;;-3.72;94.34;99763.75;6253516;22;19942;-74
2021/01/01 04:53:17;;;;;;;;;;;;;;;-3.73;94.34;99764.81;6280667;22;19938;-75
2021/01/01 04:55:43;;;;;;;;;;;;;;;-3.77;94.40;99773.59;6253336;22;19945;-75
2021/01/01 04:58:08;;;;;;;;;;;;;;;-3.76;94.14;99764.41;6253770;22;19914;-74
2021/01/01 05:00:33;;;;;;;;;;;;;;;-3.73;93.98;99764.81;6227943;22;20190;-75
2021/01/01 05:02:59;;;;;;;;;;;;;;;-3.78;94.17;99771.94;6280518;22;19911;-74
2021/01/01 05:05:27;;;;;;;;;;;;;;;-3.80;94.29;99769.44;6228567;22;19903;-74
2021/01/01 05:07:53;;;;;;;;;;;;;;;-3.81;94.33;99767.78;6253893;22;19907;-74
2021/01/01 05:10:18;;;;;;;;;;;;;;;-3.83;94.56;99767.16;6279725;22;19964;-74
2021/01/01 05:12:43;;;;;;;;;;;;;;;-3.87;94.51;99769.50;6227639;22;19909;-74
2021/01/01 05:15:09;;;;;;;;;;;;;;;-3.88;94.70;99775.94;6228161;22;19990;-75
2021/01/01 05:17:35;;;;;;;;;;;;;;;-3.80;93.95;99774.03;6280752;22;19930;-74
2021/01/01 05:20:04;;;;;;;;;;;;;;;-3.88;94.31;99773.25;6252656;22;19907;-74
2021/01/01 05:22:31;;;;;;;;;;;;;;;-3.88;94.28;99773.25;6280303;22;19910;-74
2021/01/01 05:24:56;;;;;;;;;;;;;;;-3.89;94.45;99770.75;6279501;22;19950;-74
2021/01/01 05:27:22;;;;;;;;;;;;;;;-3.93;94.44;99775.78;6228262;22;19903;-74
2021/01/01 05:29:51;;;;;;;;;;;;;;;-3.92;94.48;99772.03;6253183;22;19915;-74
2021/01/01 05:32:23;;;;;;;;;;;;;;;-3.92;94.24;99774.72;6279820;22;19903;-74
2021/01/01 05:34:48;;;;;;;;;;;;;;;-3.95;94.58;99767.03;6279711;22;19906;-74
2021/01/01 05:37:26;;;;;;;;;;;;;;;-3.91;94.35;99768.25;6280683;22;19903;-74
2021/01/01 05:40:07;;;;;;;;;;;;;;;-3.88;93.97;99772.41;6252232;22;19942;-74
2021/01/01 05:42:33;;;;;;;;;;;;;;;-3.95;94.29;99772.47;6280122;22;19911;-74
2021/01/01 05:45:11;;;;;;;;;;;;;;;-3.98;94.15;99772.91;6252708;22;19903;-74
2021/01/01 05:47:36;;;;;;;;;;;;;;;-3.98;94.22;99777.47;6280119;22;19903;-75
2021/01/01 05:50:01;;;;;;;;;;;;;;;-3.98;94.58;99778.31;6279876;22;19903;-74
2021/01/01 05:52:27;;;;;;;;;;;;;;;-3.97;94.12;99777.25;6280055;22;19952;-74
2021/01/01 05:54:58;;;;;;;;;;;;;;;-3.99;94.27;99779.34;6279979;22;19907;-74
2021/01/01 05:57:32;;;;;;;;;;;;;;;-4.02;94.24;99787.09;6227815;22;19904;-75
2021/01/01 05:59:57;;;;;;;;;;;;;;;-4.04;94.20;99792.72;6280227;22;19977;-74
2021/01/01 06:02:22;;;;;;;;;;;;;;;-4.01;94.01;99789.59;6253005;22;19903;-74
2021/01/01 06:04:48;;;;;;;;;;;;;;;-4.08;94.11;99799.66;6279382;22;19907;-74
2021/01/01 06:07:13;;;;;;;;;;;;;;;-4.10;94.27;99793.59;6253027;22;19903;-74
2021/01/01 06:09:39;;;;;;;;;;;;;;;-4.08;94.18;99795.03;6279641;22;19911;-75
2021/01/01 06:12:05;;;;;;;;;;;;;;;-4.10;94.23;99801.72;6279819;22;19955;-74
2021/01/01 06:14:31;;;;;;;;;;;;;;;-4.08;94.06;99811.31;6279957;22;20412;-75
2021/01/01 06:17:14;;;;;;;;;;;;;;;-4.14;94.29;99805.94;6280182;22;19930;-74
2021/01/01 06:19:39;;;;;;;;;;;;;;;-4.17;94.28;99815.34;6227583;22;20023;-75
2021/01/01 06:22:05;;;;;;;;;;;;;;;-4.16;94.04;99803.44;6279716;22;19903;-74
2021/01/01 06:24:30;;;;;;;;;;;;;;;-4.20;94.28;99820.38;6279599;22;19910;-74
2021/01/01 06:26:55;;;;;;;;;;;;;;;-4.19;94.17;99820.13;6252805;22;19988;-74
2021/01/01 06:29:21;;;;;;;;;;;;;;;-4.17;94.19;99826.19;6279972;22;19903;-75
2021/01/01 06:31:46;;;;;;;;;;;;;;;-4.16;93.92;99825.13;6252695;22;19938;-75
2021/01/01 06:34:21;;;;;;;;;;;;;;;-4.15;93.98;99828.66;6278525;22;19903;-75
2021/01/01 06:36:48;;;;;;;;;;;;;;;-4.22;94.19;99831.41;6279294;22;20394;-74
2021/01/01 06:39:33;;;;;;;;;;;;;;;-4.18;93.99;99826.38;6253111;22;19903;-75
2021/01/01 06:41:58;;;;;;;;;;;;;;;-4.24;94.35;99838.91;6279585;22;20383;-74
2021/01/01 06:44:34;;;;;;;;;;;;;;;-4.18;94.08;99842.66;6252554;22;19907;-75
2021/01/01 06:46:59;;;;;;;;;;;;;;;-4.24;94.25;99841.63;6252154;22;19903;-75
2021/01/01 06:49:31;;;;;;;;;;;;;;;-4.27;94.27;99845.59;6279630;22;19903;-74
2021/01/01 06:52:13;;;;;;;;;;;;;;;-4.18;94.90;99850.78;6252544;22;19907;-74
2021/01/01 06:54:54;;;;;;;;;;;;;;;-4.19;94.50;99855.38;6252240;22;19914;-74
2021/01/01 06:57:21;;;;;;;;;;;;;;;-4.18;94.46;99858.91;6279349;22;19910;-74
2021/01/01 06:59:46;;;;;;;;;;;;;;;-4.17;94.39;99866.03;6279671;22;20002;-74
2021/01/01 07:02:27;;;;;;;;;;;;;;;-4.21;94.34;99864.78;6279433;22;20320;-73
2021/01/01 07:04:53;;;;;;;;;;;;;;;-4.22;94.39;99865.84;6279496;22;19937;-74
2021/01/01 07:07:37;;;;;;;;;;;;;;;-4.21;94.42;99865.59;6279578;22;19930;-75
2021/01/01 07:10:03;;;;;;;;;;;;;;;-4.20;94.38;99871.88;6278627;22;19911;-75
2021/01/01 07:12:28;;;;;;;;;;;;;;;-4.24;94.18;99870.63;6252297;22;19907;-74
2021/01/01 07:14:54;;;;;;;;;;;;;;;-4.27;94.50;99875.41;6227197;22;19903;-74
2021/01/01 07:17:19;;;;;;;;;;;;;;;-4.25;94.58;99877.09;6252349;22;19903;-74
2021/01/01 07:19:44;;;;;;;;;;;;;;;-4.27;94.50;99886.25;6278766;22;20362;-75
2021/01/01 07:22:10;;;;;;;;;;;;;;;-4.21;94.41;99883.75;6226716;22;19934;-75
2021/01/01 07:24:35;;;;;;;;;;;;;;;-4.32;94.79;99886.09;6201823;22;19934;-74
2021/01/01 07:27:00;;;;;;;;;;;;;;;-4.25;94.50;99887.94;6279570;22;19903;-74
2021/01/01 07:29:26;;;;;;;;;;;;;;;-4.29;94.80;99885.66;6201881;22;19903;-74
2021/01/01 07:31:52;;;;;;;;;;;;;;;-4.27;94.45;99890.84;6251933;22;19911;-74
2021/01/01 07:34:18;;;;;;;;;;;;;;;-4.29;94.44;99899.22;6251590;22;19930;-74
2021/01/01 07:36:43;;;;;;;;;;;;;;;-4.35;94.83;99900.06;6252029;22;19927;-74
2021/01/01 07:39:09;;;;;;;;;;;;;;;-4.31;94.78;99895.88;6226663;22;19914;-74
2021/01/01 07:41:34;;;;;;;;;;;;;;;-4.33;94.60;99903.38;6278780;22;19907;-74
2021/01/01 07:43:59;;;;;;;;;;;;;;;-4.34;94.44;99906.34;6252240;22;19907;-74
2021/01/01 07:46:25;;;;;;;;;;;;;;;-4.37;94.61;99909.47;6278930;22;19934;-74
2021/01/01 07:48:53;;;;;;;;;;;;;;;-4.38;94.43;99908.59;6278969;22;19973;-74
2021/01/01 07:51:19;;;;;;;;;;;;;;;-4.32;94.23;99912.34;6226137;22;19903;-74
2021/01/01 07:53:45;;;;;;;;;;;;;;;-4.30;94.30;99916.53;6252200;22;19903;-73
2021/01/01 07:56:10;;;;;;;;;;;;;;;-4.36;94.52;99914.66;6278775;22;19907;-74
2021/01/01 07:58:36;;;;;;;;;;;;;;;-4.35;94.38;99913.59;6251720;22;20525;-74
2021/01/01 08:01:06;;;;;;;;;;;;;;;-4.40;94.15;99916.13;6251800;22;19907;-75
2021/01/01 08:03:31;;;;;;;;;;;;;;;-4.38;94.29;99915.91;6252226;22;19903;-75
2021/01/01 08:05:56;;;;;;;;;;;;;;;-4.40;94.54;99921.56;6278898;22;19937;-74
2021/01/01 08:08:23;;;;;;;;;;;;;;;-4.41;94.65;99924.47;6251764;22;19903;-74
2021/01/01 08:10:48;;;;;;;;;;;;;;;-4.40;94.64;99926.13;6251492;22;19907;-74
2021/01/01 08:13:18;;;;;;;;;;;;;;;-4.40;94.61;99926.97;6279369;22;20292;-74
2021/01/01 08:15:43;;;;;;;;;;;;;;;-4.38;94.43;99930.28;6252114;22;20295;-74
2021/01/01 08:18:08;;;;;;;;;;;;;;;-4.41;94.46;99941.56;6278453;22;19914;-75
2021/01/01 08:20:34;;;;;;;;;;;;;;;-4.44;94.43;99939.28;6278537;22;19914;-74
2021/01/01 08:22:59;;;;;;;;;;;;;;;-4.41;94.23;99941.56;6279049;22;19903;-74
2021/01/01 08:25:24;;;;;;;;;;;;;;;-4.41;94.40;99948.88;6201353;22;19903;-74
2021/01/01 08:27:50;;;;;;;;;;;;;;;-4.40;94.11;99942.38;6226963;22;20406;-74
2021/01/01 08:30:15;;;;;;;;;;;;;;;-4.42;94.39;99948.03;6225950;22;19929;-75
2021/01/01 08:32:40;;;;;;;;;;;;;;;-4.40;94.47;99953.22;6279123;22;20320;-74
2021/01/01 08:35:11;;;;;;;;;;;;;;;-4.36;94.52;99957.22;6251024;22;19903;-75
2021/01/01 08:37:36;;;;;;;;;;;;;;;-4.34;94.41;99961.38;6251428;22;19988;-74
2021/01/01 08:40:08;;;;;;;;;;;;;;;-4.33;94.41;99960.31;6251050;22;19907;-74
2021/01/01 08:42:34;;;;;;;;;;;;;;;-4.37;94.52;99960.97;6251808;22;20338;-75
2021/01/01 08:45:03;;;;;;;;;;;;;;;-4.35;94.70;99962.41;6279133;22;19927;-74
2021/01/01 08:47:38;;;;;;;;;;;;;;;-4.35;94.71;99962.41;6251587;22;20313;-74
2021/01/01 08:50:04;;;;;;;;;;;;;;;-4.30;95.18;99969.91;6249738;22;19910;-75
2021/01/01 08:52:31;;;;;;;;;;;;;;;-4.32;95.71;99989.13;6251797;22;19903;-74
2021/01/01 08:54:56;;;;;;;;;;;;;;;-4.28;95.81;99979.50;6279063;22;19910;-74
2021/01/01 08:57:28;;;;;;;;;;;;;;;-4.20;95.81;99986.59;6278946;22;20300;-74
2021/01/01 09:00:00;;;;;;;;;;;;;;;-4.14;96.08;99984.94;6226430;22;19911;-74
2021/01/01 09:02:28;;;;;;;;;;;;;;;-4.11;96.31;99982.63;6280712;22;19909;-74
2021/01/01 09:04:55;;;;;;;;;;;;;;;-4.02;96.56;99993.25;6228292;22;19965;-74
2021/01/01 09:07:21;;;;;;;;;;;;;;;-3.99;96.36;99993.66;6229061;22;19930;-74
2021/01/01 09:09:46;;;;;;;;;;;;;;;-3.88;96.62;100001.13;6280148;22;20232;-74
2021/01/01 09:12:19;;;;;;;;;;;;;;;-3.78;96.50;100002.59;6280129;22;20243;-74
2021/01/01 09:14:47;;;;;;;;;;;;;;;-3.68;96.56;99994.81;6280988;22;20232;-74
2021/01/01 09:17:12;;;;;;;;;;;;;;;-3.53;96.41;99992.69;6253693;22;19959;-74
2021/01/01 09:19:38;;;;;;;;;;;;;;;-3.46;96.68;99995.38;6252787;22;20316;-74
2021/01/01 09:22:16;;;;;;;;;;;;;;;-3.32;96.95;99993.44;6227914;22;19918;-74
2021/01/01 09:24:42;;;;;;;;;;;;;;;-3.19;97.77;99998.81;6280083;22;19903;-74
2021/01/01 09:27:07;;;;;;;;;;;;;;;-3.07;97.12;100004.38;6253618;22;20240;-74
2021/01/01 09:29:32;;;;;;;;;;;;;;;-2.97;97.49;100008.31;6253489;22;19903;-74
2021/01/01 09:31:58;;;;;;;;;;;;;;;-2.84;97.46;100006.56;6253067;22;20347;-74
2021/01/01 09:34:23;;;;;;;;;;;;;;;-2.73;97.60;100008.56;6279501;22;19903;-74
2021/01/01 09:36:49;;;;;;;;;;;;;;;-2.62;97.35;99993.44;6253406;22;20020;-74
2021/01/01 09:39:14;;;;;;;;;;;;;;;-2.56;97.38;100003.47;6227430;22;19992;-75
2021/01/01 09:41:41;;;;;;;;;;;;;;;-2.43;97.55;100003.34;6252579;22;19914;-74
2021/01/01 09:44:06;;;;;;;;;;;;;;;-2.32;98.04;100013.50;6227938;22;19926;-74
2021/01/01 09:46:32;;;;;;;;;;;;;;;-2.22;98.10;100014.91;6280552;22;20236;-74
2021/01/01 09:48:57;;;;;;;;;;;;;;;-2.12;98.08;100009.78;6252616;22;19903;-74
2021/01/01 09:51:22;;;;;;;;;;;;;;;-2.03;98.40;100009.28;6252597;22;19910;-74
2021/01/01 09:53:48;;;;;;;;;;;;;;;-1.95;98.23;100010.88;6280754;22;19907;-75
2021/01/01 09:56:13;;;;;;;;;;;;;;;-1.86;98.05;100017.69;6253259;22;20465;-75
2021/01/01 09:58:38;;;;;;;;;;;;;;;-1.75;98.17;100015.31;6279959;22;19945;-75
2021/01/01 10:01:04;;;;;;;;;;;;;;;-1.65;98.26;100010.16;6279724;22;19915;-74
2021/01/01 10:03:29;;;;;;;;;;;;;;;-1.54;98.15;100014.00;6280143;22;19903;-74
2021/01/01 10:05:54;;;;;;;;;;;;;;;-1.45;97.82;100015.38;6279854;22;19910;-75
2021/01/01 10:08:20;;;;;;;;;;;;;;;-1.36;97.76;100017.56;6252857;22;19914;-75
2021/01/01 10:10:45;;;;;;;;;;;;;;;-1.24;97.73;100019.53;6279603;22;20232;-74
2021/01/01 10:13:11;;;;;;;;;;;;;;;-1.15;97.57;100026.31;6253166;22;19985;-74
2021/01/01 10:15:36;;;;;;;;;;;;;;;-1.05;97.47;100036.69;6280492;22;19903;-73
2021/01/01 10:18:02;;;;;;;;;;;;;;;-0.95;97.93;100034.22;6252755;22;19907;-75
2021/01/01 10:20:27;;;;;;;;;;;;;;;-0.87;97.70;100031.19;6279165;22;19907;-75
2021/01/01 10:22:52;;;;;;;;;;;;;;;-0.77;97.49;100031.47;6279736;22;19938;-74
2021/01/01 10:25:18;;;;;;;;;;;;;;;-0.69;97.29;100036.63;6252650;22;19922;-75
2021/01/01 10:27:43;;;;;;;;;;;;;;;-0.58;97.79;100045.06;6279820;22;19911;-73
2021/01/01 10:30:09;;;;;;;;;;;;;;;-0.50;97.49;100045.56;6252530;22;19904;-76
2021/01/01 10:32:34;;;;;;;;;;;;;;;-0.40;97.80;100046.91;6252597;22;19907;-75
2021/01/01 10:35:00;;;;;;;;;;;;;;;-0.30;97.60;100048.00;6279519;22;19985;-74
2021/01/01 10:37:25;;;;;;;;;;;;;;;-0.20;97.51;100050.13;6279649;22;19973;-74
2021/01/01 10:39:50;;;;;;;;;;;;;;;-0.10;97.49;100052.31;6251927;22;19903;-75
2021/01/01 10:42:15;;;;;;;;;;;;;;;0.01;97.49;100050.66;6279754;22;20386;-74
2021/01/01 10:44:41;;;;;;;;;;;;;;;0.10;97.05;100054.69;6279882;22;19938;-73
2021/01/01 10:47:06;;;;;;;;;;;;;;;0.21;97.03;100056.59;6279177;22;20300;-75
2021/01/01 10:49:33;;;;;;;;;;;;;;;0.32;97.16;100054.94;6279394;22;19953;-75
2021/01/01 10:51:58;;;;;;;;;;;;;;;0.42;97.10;100044.25;6227462;22;20336;-75
2021/01/01 10:54:24;;;;;;;;;;;;;;;0.53;96.78;100048.88;6279586;22;19911;-75
2021/01/01 10:56:49;;;;;;;;;;;;;;;0.63;97.14;100046.34;6252338;22;19907;-75
2021/01/01 10:59:14;;;;;;;;;;;;;;;0.73;96.81;100051.22;6279514;22;20376;-74
2021/01/01 11:01:40;;;;;;;;;;;;;;;0.83;96.41;100047.88;6279265;22;20010;-76
2021/01/01 11:04:05;;;;;;;;;;;;;;;0.94;96.74;100048.91;6251949;22;19933;-74
2021/01/01 11:06:34;;;;;;;;;;;;;;;1.03;96.67;100048.31;6278808;22;20260;-75
2021/01/01 11:09:00;;;;;;;;;;;;;;;1.10;96.65;100051.72;6226370;22;20348;-75
2021/01/01 11:11:25;;;;;;;;;;;;;;;1.20;96.28;100050.25;6252258;22;19903;-73
2021/01/01 12:25:22;;;;;;;;;;;;;;;2.50;95.10;100014.63;6279031;22;19946;-76
2021/01/01 12:27:48;;;;;;;;;;;;;;;2.52;94.99;100010.56;6252056;22;19903;-76
2021/01/01 12:30:14;;;;;;;;;;;;;;;2.55;94.89;100014.72;6278790;22;20269;-76
2021/01/01 12:32:40;;;;;;;;;;;;;;;2.57;94.45;100012.56;6251689;22;19903;-76
2021/01/01 12:35:06;;;;;;;;;;;;;;;2.60;93.47;100012.88;6251790;22;19903;-76
2021/01/01 12:37:31;;;;;;;;;;;;;;;2.64;92.72;100011.25;6253752;22;19982;-76
2021/01/01 12:39:56;;;;;;;;;;;;;;;2.65;92.78;100010.19;6253489;22;19911;-76
2021/01/01 12:42:22;;;;;;;;;;;;;;;2.67;92.74;100007.19;6281131;22;19990;-76
2021/01/01 12:44:47;;;;;;;;;;;;;;;2.64;93.30;100000.28;6254025;22;19903;-76
2021/01/01 12:47:13;;;;;;;;;;;;;;;2.63;92.98;100001.41;6253523;22;19914;-76
2021/01/01 12:49:38;;;;;;;;;;;;;;;2.61;92.70;100003.56;6228311;22;20035;-76
2021/01/01 12:52:03;;;;;;;;;;;;;;;2.60;92.83;99993.69;6280745;22;19903;-76
2021/01/01 12:54:29;;;;;;;;;;;;;;;2.55;92.41;99988.13;6253468;22;19904;-76
2021/01/01 12:56:54;;;;;;;;;;;;;;;2.53;92.65;99994.94;6253438;22;19945;-76
2021/01/01 12:59:20;;;;;;;;;;;;;;;2.48;92.76;99995.72;6280491;22;20227;-76
2021/01/01 13:01:45;;;;;;;;;;;;;;;2.43;92.73;99990.16;6227881;22;19961;-75
2021/01/01 13:04:10;;;;;;;;;;;;;;;2.38;92.53;99993.66;6280398;22;19907;-76
2021/01/01 13:06:36;;;;;;;;;;;;;;;2.33;92.55;99990.84;6227785;22;19903;-76
2021/01/01 13:09:02;;;;;;;;;;;;;;;2.28;92.71;99990.75;6253214;22;19911;-76
2021/01/01 13:11:27;;;;;;;;;;;;;;;2.23;93.27;99990.72;6280038;22;20271;-76
2021/01/01 13:13:53;;;;;;;;;;;;;;;2.19;93.11;99995.00;6280606;22;20374;-76
2021/01/01 13:16:24;;;;;;;;;;;;;;;2.15;92.72;99999.34;6280653;22;19955;-76
2021/01/01 13:18:50;;;;;;;;;;;;;;;2.12;92.43;99997.94;6280326;22;19953;-76
2021/01/01 13:21:35;;;;;;;;;;;;;;;2.07;92.37;99992.38;6279875;22;19910;-76
2021/01/01 13:24:01;;;;;;;;;;;;;;;2.01;92.32;99988.72;6279535;22;19990;-75
2021/01/01 13:26:27;;;;;;;;;;;;;;;1.99;92.29;99990.88;6227936;22;19926;-76
2021/01/01 13:28:52;;;;;;;;;;;;;;;1.92;92.76;99990.25;6280034;22;19903;-76
2021/01/01 13:31:18;;;;;;;;;;;;;;;1.91;92.19;99995.97;6280259;22;19907;-75
2021/01/01 13:33:43;;;;;;;;;;;;;;;1.88;92.42;99993.72;6279564;22;20320;-76
2021/01/01 13:36:15;;;;;;;;;;;;;;;1.85;92.48;99986.84;6280379;22;19986;-76
2021/01/01 13:38:40;;;;;;;;;;;;;;;1.81;92.67;99988.41;6280191;22;19904;-76
2021/01/01 13:41:09;;;;;;;;;;;;;;;1.78;93.40;99994.38;6252697;22;19907;-76
2021/01/01 13:43:34;;;;;;;;;;;;;;;1.75;93.22;100000.34;6254189;22;19925;-76
2021/01/01 13:46:00;;;;;;;;;;;;;;;1.70;93.38;100003.00;6252449;22;19982;-75
2021/01/01 13:48:25;;;;;;;;;;;;;;;1.67;92.88;99992.53;6279291;22;20375;-75
2021/01/01 13:50:50;;;;;;;;;;;;;;;1.67;92.42;100003.50;6252671;22;19903;-75
2021/01/01 13:53:16;;;;;;;;;;;;;;;1.62;93.12;100008.91;6280230;22;19910;-75